sensor_id;sensor_type;location;lat;lon;timestamp;temperature;humidity
38938;DHT22;24727;51.974;20.868;2022-11-04T00:02:24;4.30;89.50
38938;DHT22;24727;51.974;20.868;2022-11-04T00:04:49;4.30;89.90
38938;DHT22;24727;51.974;20.868;2022-11-04T00:07:15;4.30;90.30
38938;DHT22;24727;51.974;20.868;2022-11-04T00:10:00;4.40;90.20
38938;DHT22;24727;51.974;20.868;2022-11-04T00:12:27;4.40;89.70
38938;DHT22;24727;51.974;20.868;2022-11-04T00:14:59;4.40;89.50
38938;DHT22;24727;51.974;20.868;2022-11-04T00:17:46;4.50;89.90
38938;DHT22;24727;51.974;20.868;2022-11-04T00:20:12;4.60;90.30
38938;DHT22;24727;51.974;20.868;2022-11-04T00:22:57;4.60;89.90
38938;DHT22;24727;51.974;20.868;2022-11-04T00:25:42;4.60;90.30
38938;DHT22;24727;51.974;20.868;2022-11-04T00:28:27;4.70;90.10
38938;DHT22;24727;51.974;20.868;2022-11-04T00:31:09;4.70;89.90
38938;DHT22;24727;51.974;20.868;2022-11-04T00:33:56;4.80;89.60
38938;DHT22;24727;51.974;20.868;2022-11-04T00:36:23;4.80;89.60
38938;DHT22;24727;51.974;20.868;2022-11-04T00:38:56;4.90;88.80
38938;DHT22;24727;51.974;20.868;2022-11-04T00:41:22;4.90;88.70
38938;DHT22;24727;51.974;20.868;2022-11-04T00:43:53;5.00;89.10
38938;DHT22;24727;51.974;20.868;2022-11-04T00:46:21;5.00;88.50
38938;DHT22;24727;51.974;20.868;2022-11-04T00:48:48;5.00;87.10
38938;DHT22;24727;51.974;20.868;2022-11-04T00:51:15;5.00;86.30
38938;DHT22;24727;51.974;20.868;2022-11-04T00:53:41;5.10;86.30
38938;DHT22;24727;51.974;20.868;2022-11-04T00:56:07;5.10;86.00
38938;DHT22;24727;51.974;20.868;2022-11-04T00:58:33;5.10;87.60
38938;DHT22;24727;51.974;20.868;2022-11-04T01:00:59;5.10;86.40
38938;DHT22;24727;51.974;20.868;2022-11-04T01:03:25;5.20;86.50
38938;DHT22;24727;51.974;20.868;2022-11-04T01:05:52;5.20;85.50
38938;DHT22;24727;51.974;20.868;2022-11-04T01:08:18;5.20;84.10
38938;DHT22;24727;51.974;20.868;2022-11-04T01:10:44;5.10;83.70
38938;DHT22;24727;51.974;20.868;2022-11-04T01:13:16;5.20;83.10
38938;DHT22;24727;51.974;20.868;2022-11-04T01:15:43;5.20;81.50
38938;DHT22;24727;51.974;20.868;2022-11-04T01:18:09;5.20;81.20
38938;DHT22;24727;51.974;20.868;2022-11-04T01:20:35;5.20;81.40
38938;DHT22;24727;51.974;20.868;2022-11-04T01:23:00;5.30;81.60
38938;DHT22;24727;51.974;20.868;2022-11-04T01:25:26;5.30;79.00
38938;DHT22;24727;51.974;20.868;2022-11-04T01:27:54;5.40;80.40
38938;DHT22;24727;51.974;20.868;2022-11-04T01:30:20;5.40;79.10
38938;DHT22;24727;51.974;20.868;2022-11-04T01:32:48;5.40;79.00
38938;DHT22;24727;51.974;20.868;2022-11-04T01:35:20;5.40;77.10
38938;DHT22;24727;51.974;20.868;2022-11-04T01:37:47;5.40;72.60
38938;DHT22;24727;51.974;20.868;2022-11-04T01:40:13;5.40;68.30
38938;DHT22;24727;51.974;20.868;2022-11-04T01:42:38;5.40;67.90
38938;DHT22;24727;51.974;20.868;2022-11-04T01:45:13;5.40;67.70
38938;DHT22;24727;51.974;20.868;2022-11-04T01:50:23;5.50;67.60
38938;DHT22;24727;51.974;20.868;2022-11-04T01:52:56;5.50;62.90
38938;DHT22;24727;51.974;20.868;2022-11-04T01:55:28;5.50;64.60
38938;DHT22;24727;51.974;20.868;2022-11-04T01:58:00;5.50;64.90
38938;DHT22;24727;51.974;20.868;2022-11-04T02:00:27;5.50;64.70
38938;DHT22;24727;51.974;20.868;2022-11-04T02:02:58;5.50;64.80
38938;DHT22;24727;51.974;20.868;2022-11-04T02:05:24;5.50;67.10
38938;DHT22;24727;51.974;20.868;2022-11-04T02:07:54;5.50;67.30
38938;DHT22;24727;51.974;20.868;2022-11-04T02:10:25;5.50;65.90
38938;DHT22;24727;51.974;20.868;2022-11-04T02:12:53;5.50;62.00
38938;DHT22;24727;51.974;20.868;2022-11-04T02:21:24;5.50;57.90
38938;DHT22;24727;51.974;20.868;2022-11-04T02:24:13;5.50;61.20
38938;DHT22;24727;51.974;20.868;2022-11-04T02:27:18;5.50;59.50
38938;DHT22;24727;51.974;20.868;2022-11-04T02:30:17;5.50;57.90
38938;DHT22;24727;51.974;20.868;2022-11-04T02:35:53;5.60;56.80
38938;DHT22;24727;51.974;20.868;2022-11-04T02:47:12;5.60;58.10
38938;DHT22;24727;51.974;20.868;2022-11-04T02:49:40;5.70;57.50
38938;DHT22;24727;51.974;20.868;2022-11-04T02:52:15;5.70;58.00
38938;DHT22;24727;51.974;20.868;2022-11-04T02:55:10;5.70;57.70
38938;DHT22;24727;51.974;20.868;2022-11-04T02:57:37;5.80;53.10
38938;DHT22;24727;51.974;20.868;2022-11-04T03:00:07;5.80;50.70
38938;DHT22;24727;51.974;20.868;2022-11-04T03:02:42;5.80;51.00
38938;DHT22;24727;51.974;20.868;2022-11-04T03:05:12;5.80;51.20
38938;DHT22;24727;51.974;20.868;2022-11-04T03:07:40;5.80;47.40
38938;DHT22;24727;51.974;20.868;2022-11-04T03:10:12;5.80;48.40
38938;DHT22;24727;51.974;20.868;2022-11-04T03:12:56;5.90;48.20
38938;DHT22;24727;51.974;20.868;2022-11-04T03:15:32;5.90;44.90
38938;DHT22;24727;51.974;20.868;2022-11-04T03:20:50;5.90;45.30
38938;DHT22;24727;51.974;20.868;2022-11-04T03:23:18;5.90;43.30
38938;DHT22;24727;51.974;20.868;2022-11-04T03:25:47;5.90;42.40
38938;DHT22;24727;51.974;20.868;2022-11-04T03:31:33;6.00;51.80
38938;DHT22;24727;51.974;20.868;2022-11-04T03:34:01;6.00;54.60
38938;DHT22;24727;51.974;20.868;2022-11-04T03:36:29;6.00;56.30
38938;DHT22;24727;51.974;20.868;2022-11-04T03:38:56;6.00;57.90
38938;DHT22;24727;51.974;20.868;2022-11-04T03:41:52;6.00;59.80
38938;DHT22;24727;51.974;20.868;2022-11-04T03:44:20;6.00;59.80
38938;DHT22;24727;51.974;20.868;2022-11-04T03:46:46;6.00;58.20
38938;DHT22;24727;51.974;20.868;2022-11-04T03:49:13;6.10;56.50
38938;DHT22;24727;51.974;20.868;2022-11-04T03:51:39;6.00;62.50
38938;DHT22;24727;51.974;20.868;2022-11-04T03:54:06;6.00;62.20
38938;DHT22;24727;51.974;20.868;2022-11-04T04:02:16;6.10;53.80
38938;DHT22;24727;51.974;20.868;2022-11-04T04:05:08;6.20;51.50
38938;DHT22;24727;51.974;20.868;2022-11-04T04:16:22;6.30;44.10
38938;DHT22;24727;51.974;20.868;2022-11-04T04:19:00;6.20;45.00
38938;DHT22;24727;51.974;20.868;2022-11-04T04:21:36;6.30;38.00
38938;DHT22;24727;51.974;20.868;2022-11-04T04:24:06;6.30;39.50
38938;DHT22;24727;51.974;20.868;2022-11-04T04:26:52;6.30;43.30
38938;DHT22;24727;51.974;20.868;2022-11-04T04:29:38;6.30;43.70
38938;DHT22;24727;51.974;20.868;2022-11-04T04:32:06;6.30;41.30
38938;DHT22;24727;51.974;20.868;2022-11-04T04:34:33;6.30;44.70
38938;DHT22;24727;51.974;20.868;2022-11-04T04:39:44;6.30;48.00
38938;DHT22;24727;51.974;20.868;2022-11-04T04:42:34;6.30;48.70
38938;DHT22;24727;51.974;20.868;2022-11-04T04:45:34;6.30;50.00
38938;DHT22;24727;51.974;20.868;2022-11-04T04:48:01;6.30;47.90
38938;DHT22;24727;51.974;20.868;2022-11-04T04:50:48;6.30;47.00
38938;DHT22;24727;51.974;20.868;2022-11-04T04:53:16;6.30;45.80
38938;DHT22;24727;51.974;20.868;2022-11-04T04:55:43;6.30;46.40
38938;DHT22;24727;51.974;20.868;2022-11-04T04:58:09;6.30;48.10
38938;DHT22;24727;51.974;20.868;2022-11-04T05:00:35;6.30;48.60
38938;DHT22;24727;51.974;20.868;2022-11-04T05:03:01;6.20;48.10
38938;DHT22;24727;51.974;20.868;2022-11-04T05:05:28;6.20;46.00
38938;DHT22;24727;51.974;20.868;2022-11-04T05:08:04;6.30;46.50
38938;DHT22;24727;51.974;20.868;2022-11-04T05:10:31;6.20;44.60
38938;DHT22;24727;51.974;20.868;2022-11-04T05:13:01;6.20;45.90
38938;DHT22;24727;51.974;20.868;2022-11-04T05:15:45;6.30;42.90
38938;DHT22;24727;51.974;20.868;2022-11-04T05:18:12;6.30;44.00
38938;DHT22;24727;51.974;20.868;2022-11-04T05:20:38;6.30;45.40
38938;DHT22;24727;51.974;20.868;2022-11-04T05:23:06;6.30;41.10
38938;DHT22;24727;51.974;20.868;2022-11-04T05:25:31;6.40;39.40
38938;DHT22;24727;51.974;20.868;2022-11-04T05:28:01;6.40;39.20
38938;DHT22;24727;51.974;20.868;2022-11-04T05:30:29;6.40;38.20
38938;DHT22;24727;51.974;20.868;2022-11-04T05:32:55;6.40;39.60
38938;DHT22;24727;51.974;20.868;2022-11-04T05:35:21;6.40;40.80
38938;DHT22;24727;51.974;20.868;2022-11-04T05:37:49;6.40;41.90
38938;DHT22;24727;51.974;20.868;2022-11-04T05:40:15;6.40;41.00
38938;DHT22;24727;51.974;20.868;2022-11-04T05:42:41;6.40;42.00
38938;DHT22;24727;51.974;20.868;2022-11-04T05:45:07;6.40;44.50
38938;DHT22;24727;51.974;20.868;2022-11-04T05:47:34;6.40;46.90
38938;DHT22;24727;51.974;20.868;2022-11-04T05:50:00;6.40;47.70
38938;DHT22;24727;51.974;20.868;2022-11-04T05:52:27;6.40;49.00
38938;DHT22;24727;51.974;20.868;2022-11-04T05:54:53;6.40;51.00
38938;DHT22;24727;51.974;20.868;2022-11-04T05:57:25;6.50;48.30
38938;DHT22;24727;51.974;20.868;2022-11-04T05:59:51;6.50;42.90
38938;DHT22;24727;51.974;20.868;2022-11-04T06:02:17;6.60;41.70
38938;DHT22;24727;51.974;20.868;2022-11-04T06:04:44;6.60;41.70
38938;DHT22;24727;51.974;20.868;2022-11-04T06:07:09;6.60;38.60
38938;DHT22;24727;51.974;20.868;2022-11-04T06:09:37;6.60;40.70
38938;DHT22;24727;51.974;20.868;2022-11-04T06:12:14;6.70;37.10
38938;DHT22;24727;51.974;20.868;2022-11-04T06:14:41;6.70;34.90
38938;DHT22;24727;51.974;20.868;2022-11-04T06:17:15;6.70;34.60
38938;DHT22;24727;51.974;20.868;2022-11-04T06:19:42;6.80;32.80
38938;DHT22;24727;51.974;20.868;2022-11-04T06:22:13;6.80;29.60
38938;DHT22;24727;51.974;20.868;2022-11-04T06:24:48;6.80;26.20
38938;DHT22;24727;51.974;20.868;2022-11-04T06:27:14;6.90;25.30
38938;DHT22;24727;51.974;20.868;2022-11-04T06:29:40;6.90;26.10
38938;DHT22;24727;51.974;20.868;2022-11-04T06:32:13;6.90;24.30
38938;DHT22;24727;51.974;20.868;2022-11-04T06:34:40;7.00;21.40
38938;DHT22;24727;51.974;20.868;2022-11-04T06:37:06;7.00;21.10
38938;DHT22;24727;51.974;20.868;2022-11-04T06:39:33;7.10;17.90
38938;DHT22;24727;51.974;20.868;2022-11-04T06:42:00;7.10;15.40
38938;DHT22;24727;51.974;20.868;2022-11-04T06:44:26;7.10;16.00
38938;DHT22;24727;51.974;20.868;2022-11-04T06:46:52;7.10;15.00
38938;DHT22;24727;51.974;20.868;2022-11-04T06:49:20;7.20;14.40
38938;DHT22;24727;51.974;20.868;2022-11-04T06:51:48;7.20;11.50
38938;DHT22;24727;51.974;20.868;2022-11-04T06:54:15;7.20;8.50
38938;DHT22;24727;51.974;20.868;2022-11-04T06:56:42;7.30;6.20
38938;DHT22;24727;51.974;20.868;2022-11-04T06:59:20;7.30;1.20
38938;DHT22;24727;51.974;20.868;2022-11-04T07:01:48;7.30;4.40
38938;DHT22;24727;51.974;20.868;2022-11-04T07:04:14;7.40;1.00
38938;DHT22;24727;51.974;20.868;2022-11-04T07:06:42;7.40;1.00
38938;DHT22;24727;51.974;20.868;2022-11-04T07:09:13;7.40;1.00
38938;DHT22;24727;51.974;20.868;2022-11-04T07:11:42;7.50;1.00
38938;DHT22;24727;51.974;20.868;2022-11-04T07:14:08;7.50;1.00
38938;DHT22;24727;51.974;20.868;2022-11-04T07:16:35;7.50;1.00
38938;DHT22;24727;51.974;20.868;2022-11-04T07:19:02;7.50;1.00
38938;DHT22;24727;51.974;20.868;2022-11-04T07:21:28;7.60;1.00
38938;DHT22;24727;51.974;20.868;2022-11-04T07:23:55;7.60;1.00
38938;DHT22;24727;51.974;20.868;2022-11-04T07:26:21;7.70;1.00
38938;DHT22;24727;51.974;20.868;2022-11-04T07:28:47;7.70;1.00
38938;DHT22;24727;51.974;20.868;2022-11-04T07:31:13;7.70;1.00
38938;DHT22;24727;51.974;20.868;2022-11-04T07:33:39;7.70;1.00
38938;DHT22;24727;51.974;20.868;2022-11-04T07:36:09;7.70;1.00
38938;DHT22;24727;51.974;20.868;2022-11-04T07:38:36;7.70;1.00
38938;DHT22;24727;51.974;20.868;2022-11-04T07:41:02;7.70;1.00
38938;DHT22;24727;51.974;20.868;2022-11-04T07:43:29;7.70;1.00
38938;DHT22;24727;51.974;20.868;2022-11-04T07:46:10;7.70;1.00
38938;DHT22;24727;51.974;20.868;2022-11-04T07:48:37;7.80;1.00
38938;DHT22;24727;51.974;20.868;2022-11-04T07:51:06;7.70;1.00
38938;DHT22;24727;51.974;20.868;2022-11-04T07:53:35;7.70;1.00
38938;DHT22;24727;51.974;20.868;2022-11-04T07:56:07;7.70;1.00
38938;DHT22;24727;51.974;20.868;2022-11-04T07:58:34;7.70;1.00
38938;DHT22;24727;51.974;20.868;2022-11-04T08:01:07;7.70;1.00
38938;DHT22;24727;51.974;20.868;2022-11-04T08:03:34;7.70;1.00
38938;DHT22;24727;51.974;20.868;2022-11-04T08:06:03;7.70;1.00
38938;DHT22;24727;51.974;20.868;2022-11-04T08:08:30;7.70;1.00
38938;DHT22;24727;51.974;20.868;2022-11-04T08:11:06;7.70;1.00
38938;DHT22;24727;51.974;20.868;2022-11-04T08:13:35;7.70;1.00
38938;DHT22;24727;51.974;20.868;2022-11-04T08:16:04;7.70;1.00
38938;DHT22;24727;51.974;20.868;2022-11-04T08:18:31;7.70;1.00
38938;DHT22;24727;51.974;20.868;2022-11-04T08:21:00;7.80;1.00
38938;DHT22;24727;51.974;20.868;2022-11-04T08:23:27;7.70;1.00
38938;DHT22;24727;51.974;20.868;2022-11-04T08:25:53;7.60;1.00
38938;DHT22;24727;51.974;20.868;2022-11-04T08:28:19;7.60;1.30
38938;DHT22;24727;51.974;20.868;2022-11-04T08:30:56;7.60;9.80
38938;DHT22;24727;51.974;20.868;2022-11-04T08:33:25;7.60;19.20
38938;DHT22;24727;51.974;20.868;2022-11-04T08:35:54;7.70;29.50
38938;DHT22;24727;51.974;20.868;2022-11-04T08:38:21;7.70;33.70
38938;DHT22;24727;51.974;20.868;2022-11-04T08:40:47;7.80;33.10
38938;DHT22;24727;51.974;20.868;2022-11-04T08:43:13;7.80;28.70
38938;DHT22;24727;51.974;20.868;2022-11-04T08:45:44;7.80;27.60
38938;DHT22;24727;51.974;20.868;2022-11-04T08:48:12;7.90;27.00
38938;DHT22;24727;51.974;20.868;2022-11-04T08:50:39;8.00;23.10
38938;DHT22;24727;51.974;20.868;2022-11-04T08:53:05;8.00;17.90
38938;DHT22;24727;51.974;20.868;2022-11-04T08:55:31;8.00;13.00
38938;DHT22;24727;51.974;20.868;2022-11-04T08:58:00;8.10;14.00
38938;DHT22;24727;51.974;20.868;2022-11-04T09:00:26;8.20;9.80
38938;DHT22;24727;51.974;20.868;2022-11-04T09:02:53;8.30;8.20
38938;DHT22;24727;51.974;20.868;2022-11-04T09:05:21;8.30;5.90
38938;DHT22;24727;51.974;20.868;2022-11-04T09:07:47;8.40;2.90
38938;DHT22;24727;51.974;20.868;2022-11-04T09:10:16;8.40;1.00
38938;DHT22;24727;51.974;20.868;2022-11-04T09:12:43;8.50;1.00
38938;DHT22;24727;51.974;20.868;2022-11-04T09:15:10;8.60;1.00
38938;DHT22;24727;51.974;20.868;2022-11-04T09:17:37;8.70;1.00
38938;DHT22;24727;51.974;20.868;2022-11-04T09:20:04;8.70;1.00
38938;DHT22;24727;51.974;20.868;2022-11-04T09:22:30;8.80;1.00
38938;DHT22;24727;51.974;20.868;2022-11-04T09:24:57;8.90;1.00
38938;DHT22;24727;51.974;20.868;2022-11-04T09:27:23;9.00;1.00
38938;DHT22;24727;51.974;20.868;2022-11-04T09:29:49;9.10;1.00
38938;DHT22;24727;51.974;20.868;2022-11-04T09:58:46;9.50;1.00
38938;DHT22;24727;51.974;20.868;2022-11-04T10:04:12;9.70;1.00
38938;DHT22;24727;51.974;20.868;2022-11-04T10:09:53;9.70;1.00
38938;DHT22;24727;51.974;20.868;2022-11-04T10:12:39;9.80;1.00
38938;DHT22;24727;51.974;20.868;2022-11-04T10:15:32;10.00;1.00
38938;DHT22;24727;51.974;20.868;2022-11-04T10:20:56;10.30;1.00
38938;DHT22;24727;51.974;20.868;2022-11-04T10:23:40;10.40;1.00
38938;DHT22;24727;51.974;20.868;2022-11-04T10:26:14;10.50;1.00
38938;DHT22;24727;51.974;20.868;2022-11-04T10:28:53;10.70;1.00
38938;DHT22;24727;51.974;20.868;2022-11-04T10:31:19;10.80;1.00
38938;DHT22;24727;51.974;20.868;2022-11-04T10:33:58;10.80;1.00
38938;DHT22;24727;51.974;20.868;2022-11-04T10:36:28;10.80;1.00
38938;DHT22;24727;51.974;20.868;2022-11-04T10:38:56;10.80;1.00
38938;DHT22;24727;51.974;20.868;2022-11-04T10:44:19;10.70;1.00
38938;DHT22;24727;51.974;20.868;2022-11-04T10:52:34;10.70;1.00
38938;DHT22;24727;51.974;20.868;2022-11-04T10:55:02;10.90;1.00
38938;DHT22;24727;51.974;20.868;2022-11-04T10:57:28;10.80;1.00
38938;DHT22;24727;51.974;20.868;2022-11-04T11:00:03;10.80;1.00
38938;DHT22;24727;51.974;20.868;2022-11-04T11:07:44;10.80;1.00
38938;DHT22;24727;51.974;20.868;2022-11-04T11:10:23;11.00;1.00
38938;DHT22;24727;51.974;20.868;2022-11-04T11:12:52;11.10;1.00
38938;DHT22;24727;51.974;20.868;2022-11-04T11:18:16;11.20;1.00
38938;DHT22;24727;51.974;20.868;2022-11-04T11:20:49;11.20;1.00
38938;DHT22;24727;51.974;20.868;2022-11-04T11:23:37;11.10;1.00
38938;DHT22;24727;51.974;20.868;2022-11-04T11:26:49;11.10;1.00
38938;DHT22;24727;51.974;20.868;2022-11-04T11:28:58;11.10;1.00
38938;DHT22;24727;51.974;20.868;2022-11-04T11:31:36;11.10;1.00
38938;DHT22;24727;51.974;20.868;2022-11-04T11:34:06;11.10;1.00
38938;DHT22;24727;51.974;20.868;2022-11-04T11:36:38;11.10;1.00
38938;DHT22;24727;51.974;20.868;2022-11-04T11:39:18;11.10;1.00
38938;DHT22;24727;51.974;20.868;2022-11-04T11:44:37;11.10;1.00
38938;DHT22;24727;51.974;20.868;2022-11-04T11:50:10;11.30;1.00
38938;DHT22;24727;51.974;20.868;2022-11-04T11:52:46;11.50;1.00
38938;DHT22;24727;51.974;20.868;2022-11-04T11:56:11;11.50;1.00
38938;DHT22;24727;51.974;20.868;2022-11-04T12:00:49;11.60;1.00
38938;DHT22;24727;51.974;20.868;2022-11-04T12:03:28;11.60;1.00
38938;DHT22;24727;51.974;20.868;2022-11-04T12:13:56;11.60;1.00
38938;DHT22;24727;51.974;20.868;2022-11-04T12:19:16;11.60;1.00
38938;DHT22;24727;51.974;20.868;2022-11-04T12:25:14;11.50;1.00
38938;DHT22;24727;51.974;20.868;2022-11-04T12:30:18;11.40;1.00
38938;DHT22;24727;51.974;20.868;2022-11-04T12:33:05;11.40;1.00
38938;DHT22;24727;51.974;20.868;2022-11-04T12:35:56;11.40;1.00
38938;DHT22;24727;51.974;20.868;2022-11-04T12:38:40;11.40;1.00
38938;DHT22;24727;51.974;20.868;2022-11-04T12:46:48;11.30;1.00
38938;DHT22;24727;51.974;20.868;2022-11-04T12:55:20;11.20;1.00
38938;DHT22;24727;51.974;20.868;2022-11-04T12:58:15;11.20;1.00
38938;DHT22;24727;51.974;20.868;2022-11-04T13:00:40;11.20;1.00
38938;DHT22;24727;51.974;20.868;2022-11-04T13:03:49;11.20;1.00
38938;DHT22;24727;51.974;20.868;2022-11-04T13:06:32;11.20;1.00
38938;DHT22;24727;51.974;20.868;2022-11-04T13:09:48;11.20;1.00
38938;DHT22;24727;51.974;20.868;2022-11-04T13:12:00;11.20;1.00
38938;DHT22;24727;51.974;20.868;2022-11-04T13:14:53;11.20;1.00
38938;DHT22;24727;51.974;20.868;2022-11-04T13:17:23;11.20;1.00
38938;DHT22;24727;51.974;20.868;2022-11-04T13:19:59;11.20;1.00
38938;DHT22;24727;51.974;20.868;2022-11-04T13:22:36;11.20;1.00
38938;DHT22;24727;51.974;20.868;2022-11-04T13:25:04;11.20;1.00
38938;DHT22;24727;51.974;20.868;2022-11-04T13:27:38;11.10;1.00
38938;DHT22;24727;51.974;20.868;2022-11-04T13:33:12;11.00;1.00
38938;DHT22;24727;51.974;20.868;2022-11-04T13:35:58;11.00;1.00
38938;DHT22;24727;51.974;20.868;2022-11-04T13:44:47;10.90;1.00
38938;DHT22;24727;51.974;20.868;2022-11-04T13:50:00;10.90;1.00
38938;DHT22;24727;51.974;20.868;2022-11-04T13:52:30;10.90;1.00
38938;DHT22;24727;51.974;20.868;2022-11-04T13:55:00;10.90;1.00
38938;DHT22;24727;51.974;20.868;2022-11-04T13:57:33;10.90;1.00
38938;DHT22;24727;51.974;20.868;2022-11-04T14:02:45;10.90;1.00
38938;DHT22;24727;51.974;20.868;2022-11-04T14:08:13;10.80;1.00
38938;DHT22;24727;51.974;20.868;2022-11-04T14:16:09;10.70;1.00
38938;DHT22;24727;51.974;20.868;2022-11-04T14:18:40;10.70;1.00
38938;DHT22;24727;51.974;20.868;2022-11-04T14:21:15;10.80;1.00
38938;DHT22;24727;51.974;20.868;2022-11-04T14:23:49;10.70;1.00
38938;DHT22;24727;51.974;20.868;2022-11-04T14:26:25;10.60;1.00
38938;DHT22;24727;51.974;20.868;2022-11-04T14:29:22;10.60;1.00
38938;DHT22;24727;51.974;20.868;2022-11-04T14:31:56;10.60;1.00
38938;DHT22;24727;51.974;20.868;2022-11-04T14:34:32;10.60;1.00
38938;DHT22;24727;51.974;20.868;2022-11-04T14:37:05;10.60;1.00
38938;DHT22;24727;51.974;20.868;2022-11-04T14:39:41;10.50;1.00
38938;DHT22;24727;51.974;20.868;2022-11-04T14:42:12;10.50;1.00
38938;DHT22;24727;51.974;20.868;2022-11-04T14:44:44;10.50;1.00
38938;DHT22;24727;51.974;20.868;2022-11-04T14:47:25;10.50;1.00
38938;DHT22;24727;51.974;20.868;2022-11-04T14:57:43;10.40;1.00
38938;DHT22;24727;51.974;20.868;2022-11-04T15:00:27;10.40;1.00
38938;DHT22;24727;51.974;20.868;2022-11-04T15:05:37;10.40;1.00
38938;DHT22;24727;51.974;20.868;2022-11-04T15:08:34;10.40;1.00
38938;DHT22;24727;51.974;20.868;2022-11-04T15:18:41;10.30;1.00
38938;DHT22;24727;51.974;20.868;2022-11-04T15:21:07;10.20;1.00
38938;DHT22;24727;51.974;20.868;2022-11-04T15:23:51;10.20;1.00
38938;DHT22;24727;51.974;20.868;2022-11-04T15:26:30;10.20;1.00
38938;DHT22;24727;51.974;20.868;2022-11-04T15:29:02;10.20;1.00
38938;DHT22;24727;51.974;20.868;2022-11-04T15:31:34;10.20;1.00
38938;DHT22;24727;51.974;20.868;2022-11-04T15:34:02;10.20;1.00
38938;DHT22;24727;51.974;20.868;2022-11-04T15:36:34;10.20;1.00
38938;DHT22;24727;51.974;20.868;2022-11-04T15:41:41;10.20;1.00
38938;DHT22;24727;51.974;20.868;2022-11-04T15:44:33;10.20;1.00
38938;DHT22;24727;51.974;20.868;2022-11-04T15:47:24;10.10;1.00
38938;DHT22;24727;51.974;20.868;2022-11-04T15:50:00;10.10;1.00
38938;DHT22;24727;51.974;20.868;2022-11-04T15:52:30;10.10;1.00
38938;DHT22;24727;51.974;20.868;2022-11-04T15:54:58;10.10;1.00
38938;DHT22;24727;51.974;20.868;2022-11-04T15:57:31;10.20;1.00
38938;DHT22;24727;51.974;20.868;2022-11-04T16:00:07;10.20;1.00
38938;DHT22;24727;51.974;20.868;2022-11-04T16:02:43;10.10;1.00
38938;DHT22;24727;51.974;20.868;2022-11-04T16:07:47;10.10;1.00
38938;DHT22;24727;51.974;20.868;2022-11-04T16:13:22;10.10;1.00
38938;DHT22;24727;51.974;20.868;2022-11-04T16:15:49;10.10;1.00
38938;DHT22;24727;51.974;20.868;2022-11-04T16:20:54;10.10;1.00
38938;DHT22;24727;51.974;20.868;2022-11-04T16:23:24;10.10;1.00
38938;DHT22;24727;51.974;20.868;2022-11-04T16:26:03;10.20;1.00
38938;DHT22;24727;51.974;20.868;2022-11-04T16:28:34;10.10;1.00
38938;DHT22;24727;51.974;20.868;2022-11-04T16:31:32;10.10;1.00
38938;DHT22;24727;51.974;20.868;2022-11-04T16:34:01;10.10;1.00
38938;DHT22;24727;51.974;20.868;2022-11-04T16:36:28;10.10;1.00
38938;DHT22;24727;51.974;20.868;2022-11-04T16:38:57;10.00;1.00
38938;DHT22;24727;51.974;20.868;2022-11-04T16:41:26;10.00;1.00
38938;DHT22;24727;51.974;20.868;2022-11-04T16:43:54;9.90;1.00
38938;DHT22;24727;51.974;20.868;2022-11-04T16:46:21;9.90;1.00
38938;DHT22;24727;51.974;20.868;2022-11-04T16:48:48;9.90;1.00
38938;DHT22;24727;51.974;20.868;2022-11-04T16:51:20;9.90;1.00
38938;DHT22;24727;51.974;20.868;2022-11-04T16:53:51;9.90;1.00
38938;DHT22;24727;51.974;20.868;2022-11-04T16:56:23;9.80;1.00
38938;DHT22;24727;51.974;20.868;2022-11-04T16:58:51;9.80;1.00
38938;DHT22;24727;51.974;20.868;2022-11-04T17:01:23;9.80;1.00
38938;DHT22;24727;51.974;20.868;2022-11-04T17:03:50;9.80;1.00
38938;DHT22;24727;51.974;20.868;2022-11-04T17:06:17;9.80;1.00
38938;DHT22;24727;51.974;20.868;2022-11-04T17:08:45;9.80;1.00
38938;DHT22;24727;51.974;20.868;2022-11-04T17:11:11;9.80;1.00
38938;DHT22;24727;51.974;20.868;2022-11-04T17:13:39;9.80;1.00
38938;DHT22;24727;51.974;20.868;2022-11-04T17:16:10;9.80;1.00
38938;DHT22;24727;51.974;20.868;2022-11-04T17:18:40;9.80;1.00
38938;DHT22;24727;51.974;20.868;2022-11-04T17:21:12;9.80;1.00
38938;DHT22;24727;51.974;20.868;2022-11-04T17:23:40;9.80;1.00
38938;DHT22;24727;51.974;20.868;2022-11-04T17:26:06;9.80;1.00
38938;DHT22;24727;51.974;20.868;2022-11-04T17:28:33;9.80;1.00
38938;DHT22;24727;51.974;20.868;2022-11-04T17:31:00;9.80;1.00
38938;DHT22;24727;51.974;20.868;2022-11-04T17:33:28;9.80;1.00
38938;DHT22;24727;51.974;20.868;2022-11-04T17:35:55;9.80;1.00
38938;DHT22;24727;51.974;20.868;2022-11-04T17:38:21;9.70;1.00
38938;DHT22;24727;51.974;20.868;2022-11-04T17:40:47;9.80;1.00
38938;DHT22;24727;51.974;20.868;2022-11-04T17:43:31;9.70;1.00
38938;DHT22;24727;51.974;20.868;2022-11-04T17:46:16;9.70;1.00
38938;DHT22;24727;51.974;20.868;2022-11-04T17:49:03;9.70;1.00
38938;DHT22;24727;51.974;20.868;2022-11-04T17:51:30;9.70;1.00
38938;DHT22;24727;51.974;20.868;2022-11-04T17:53:56;9.70;1.00
38938;DHT22;24727;51.974;20.868;2022-11-04T17:56:23;9.70;1.00
38938;DHT22;24727;51.974;20.868;2022-11-04T17:58:49;9.70;1.00
38938;DHT22;24727;51.974;20.868;2022-11-04T18:01:18;9.80;1.00
38938;DHT22;24727;51.974;20.868;2022-11-04T18:03:45;9.80;1.00
38938;DHT22;24727;51.974;20.868;2022-11-04T18:06:12;9.70;1.00
38938;DHT22;24727;51.974;20.868;2022-11-04T18:08:38;9.70;1.00
38938;DHT22;24727;51.974;20.868;2022-11-04T18:11:08;9.80;1.00
38938;DHT22;24727;51.974;20.868;2022-11-04T18:13:35;9.80;1.00
38938;DHT22;24727;51.974;20.868;2022-11-04T18:16:27;9.70;1.00
38938;DHT22;24727;51.974;20.868;2022-11-04T18:18:53;9.70;1.00
38938;DHT22;24727;51.974;20.868;2022-11-04T18:21:19;9.70;1.00
38938;DHT22;24727;51.974;20.868;2022-11-04T18:23:46;9.70;1.00
38938;DHT22;24727;51.974;20.868;2022-11-04T18:26:18;9.80;1.00
38938;DHT22;24727;51.974;20.868;2022-11-04T18:28:45;9.80;1.00
38938;DHT22;24727;51.974;20.868;2022-11-04T18:31:27;9.80;1.00
38938;DHT22;24727;51.974;20.868;2022-11-04T18:33:54;9.70;1.00
38938;DHT22;24727;51.974;20.868;2022-11-04T18:36:20;9.70;1.00
38938;DHT22;24727;51.974;20.868;2022-11-04T18:38:48;9.70;1.00
38938;DHT22;24727;51.974;20.868;2022-11-04T18:41:22;9.70;1.00
38938;DHT22;24727;51.974;20.868;2022-11-04T18:43:48;9.70;1.00
38938;DHT22;24727;51.974;20.868;2022-11-04T18:46:15;9.70;1.00
38938;DHT22;24727;51.974;20.868;2022-11-04T18:48:42;9.70;1.00
38938;DHT22;24727;51.974;20.868;2022-11-04T18:51:12;9.70;1.00
38938;DHT22;24727;51.974;20.868;2022-11-04T18:53:40;9.70;1.00
38938;DHT22;24727;51.974;20.868;2022-11-04T18:56:09;9.70;1.00
38938;DHT22;24727;51.974;20.868;2022-11-04T18:58:37;9.70;1.00
38938;DHT22;24727;51.974;20.868;2022-11-04T19:01:19;9.70;1.00
38938;DHT22;24727;51.974;20.868;2022-11-04T19:03:47;9.70;1.00
38938;DHT22;24727;51.974;20.868;2022-11-04T19:06:16;9.60;1.00
38938;DHT22;24727;51.974;20.868;2022-11-04T19:08:47;9.60;1.00